Time;durP1;ratioP1;P1;durP2;ratioP2;P2;SDS_P1;SDS_P2;PMS_P1;PMS_P2;Temp;Humidity;BMP_temperature;BMP_pressure;BME280_temperature;BME280_humidity;BME280_pressure;Samples;Min_cycle;Max_cycle;Signal;HPM_P1;HPM_P2
2022/03/11 00:03:37;;;;;;;19.73;10.20;;;;;;;1.17;64.20;101671.50;10481283;28;20064;-78
2022/03/11 00:08:38;;;;;;;13.32;8.05;;;;;;;1.37;62.26;101669.94;10462813;28;20123;-78
2022/03/11 00:13:38;;;;;;;17.27;8.68;;;;;;;1.28;63.25;101678.59;10498270;28;20154;-78
2022/03/11 00:18:39;;;;;;;13.50;9.63;;;;;;;1.19;63.39;101661.31;10499184;28;20021;-78
2022/03/11 00:23:40;;;;;;;21.75;8.82;;;;;;;1.43;62.49;101661.13;10478673;28;20471;-78
2022/03/11 00:28:40;;;;;;;15.32;8.30;;;;;;;1.73;61.66;101653.63;10462609;28;20028;-78
2022/03/11 00:33:41;;;;;;;14.50;8.77;;;;;;;1.67;60.96;101660.78;10479791;28;20464;-78
2022/03/11 00:38:41;;;;;;;12.40;7.32;;;;;;;1.78;61.07;101652.41;10478686;28;20547;-78
2022/03/11 00:43:42;;;;;;;16.88;9.20;;;;;;;1.71;60.66;101657.72;10495964;28;20055;-78
2022/03/11 00:48:42;;;;;;;12.50;8.00;;;;;;;1.72;60.94;101662.13;10462460;28;20452;-78
2022/03/11 00:53:43;;;;;;;15.80;9.13;;;;;;;1.79;60.68;101645.53;10496893;28;20119;-78
2022/03/11 00:58:45;;;;;;;21.38;11.57;;;;;;;1.73;61.29;101653.63;10479696;28;20499;-78
2022/03/11 01:03:46;;;;;;;15.75;8.38;;;;;;;1.91;60.30;101633.81;10494560;28;20422;-78
2022/03/11 01:08:46;;;;;;;20.98;9.30;;;;;;;2.17;58.86;101632.78;10479900;28;20032;-77
2022/03/11 01:13:47;;;;;;;21.13;12.75;;;;;;;2.20;57.88;101626.22;10483866;28;20105;-78
2022/03/11 01:18:47;;;;;;;12.85;6.93;;;;;;;2.12;58.25;101613.34;10519042;28;20118;-78
2022/03/11 01:23:48;;;;;;;16.77;8.63;;;;;;;2.16;58.44;101618.03;10485187;28;20028;-77
2022/03/11 01:28:49;;;;;;;16.10;7.68;;;;;;;2.38;57.77;101605.47;10495237;28;20029;-77
2022/03/11 01:33:50;;;;;;;16.63;9.00;;;;;;;2.35;57.50;101605.19;10460584;28;20047;-78
2022/03/11 01:38:51;;;;;;;11.90;8.10;;;;;;;2.40;57.18;101596.19;10476194;28;20028;-78
2022/03/11 01:43:59;;;;;;;14.75;9.32;;;;;;;2.40;56.96;101593.59;10478313;28;20480;-78
2022/03/11 01:49:01;;;;;;;14.35;8.27;;;;;;;2.35;56.87;101582.81;10477970;28;20387;-78
2022/03/11 01:54:01;;;;;;;15.93;8.05;;;;;;;2.42;57.39;101571.38;10495449;28;20137;-78
2022/03/11 01:59:02;;;;;;;12.15;7.22;;;;;;;2.52;56.33;101569.66;10458660;28;20579;-77
2022/03/11 02:04:03;;;;;;;21.08;8.88;;;;;;;2.69;55.61;101564.34;10472261;28;20029;-78
2022/03/11 02:09:03;;;;;;;14.75;8.00;;;;;;;2.63;55.71;101550.84;10477097;28;20044;-78
2022/03/11 02:14:05;;;;;;;15.15;8.70;;;;;;;2.59;55.42;101544.47;10493395;28;20460;-77
2022/03/11 02:19:05;;;;;;;17.50;9.67;;;;;;;2.57;55.36;101538.25;10478061;28;20085;-78
2022/03/11 02:24:07;;;;;;;14.93;8.75;;;;;;;2.47;55.48;101533.03;10493385;28;20123;-78
2022/03/11 02:29:08;;;;;;;13.63;6.88;;;;;;;2.86;54.74;101529.63;10460904;28;20469;-78
2022/03/11 02:34:09;;;;;;;16.77;7.72;;;;;;;2.78;55.00;101528.03;10459317;28;20052;-78
2022/03/11 02:39:10;;;;;;;15.18;8.15;;;;;;;2.99;53.28;101520.38;10459375;28;20033;-78
2022/03/11 02:44:11;;;;;;;10.38;7.32;;;;;;;3.18;53.00;101515.16;10474750;28;20407;-78
2022/03/11 02:49:11;;;;;;;14.82;7.50;;;;;;;3.12;52.80;101507.75;10460113;28;20091;-77
2022/03/11 02:54:12;;;;;;;13.57;7.75;;;;;;;3.21;51.35;101511.16;10484157;28;20055;-78
2022/03/11 02:59:12;;;;;;;16.48;7.63;;;;;;;3.07;52.47;101507.38;10482749;28;20090;-78
2022/03/11 03:04:13;;;;;;;14.65;9.13;;;;;;;3.26;51.23;101509.00;10482083;28;20037;-77
2022/03/11 03:09:13;;;;;;;12.82;8.30;;;;;;;3.44;51.75;101499.31;10464814;28;20033;-78
2022/03/11 03:14:14;;;;;;;12.77;7.63;;;;;;;3.43;51.13;101496.63;10482514;28;20056;-78
2022/03/11 03:19:15;;;;;;;15.27;6.97;;;;;;;3.58;50.64;101500.53;10481510;28;20070;-78
2022/03/11 03:24:16;;;;;;;15.50;8.57;;;;;;;3.57;51.32;101500.38;10464483;28;20036;-78
2022/03/11 03:29:17;;;;;;;12.57;7.53;;;;;;;3.49;50.64;101497.13;10482435;28;20414;-78
2022/03/11 03:34:17;;;;;;;15.77;6.78;;;;;;;3.54;50.76;101495.84;10500743;28;20128;-78
2022/03/11 03:39:18;;;;;;;13.85;7.57;;;;;;;3.71;49.23;101484.34;10480502;28;20063;-77
2022/03/11 03:44:18;;;;;;;12.70;7.30;;;;;;;3.84;49.61;101487.97;10480048;28;20423;-78
2022/03/11 03:49:19;;;;;;;12.10;7.32;;;;;;;3.63;49.98;101485.38;10482761;28;20044;-78
2022/03/11 03:54:20;;;;;;;12.43;7.45;;;;;;;3.57;50.84;101484.84;10497311;28;20027;-78
2022/03/11 03:59:20;;;;;;;13.43;8.40;;;;;;;3.75;49.57;101485.53;10463427;28;20122;-78
2022/03/11 04:04:21;;;;;;;13.90;9.02;;;;;;;3.71;49.06;101483.44;10464001;28;20064;-78
2022/03/11 04:09:21;;;;;;;14.23;7.47;;;;;;;3.72;50.03;101491.34;10498361;28;20082;-78
2022/03/11 04:14:22;;;;;;;13.90;7.65;;;;;;;3.76;49.22;101487.34;10479103;28;20025;-78
2022/03/11 04:19:22;;;;;;;14.23;7.53;;;;;;;3.87;49.79;101486.56;10478471;28;20063;-77
2022/03/11 04:24:23;;;;;;;12.43;6.72;;;;;;;3.95;49.38;101485.53;10463209;28;20468;-78
2022/03/11 04:29:26;;;;;;;16.35;8.40;;;;;;;3.94;49.70;101482.78;10496658;28;20404;-77
2022/03/11 04:34:26;;;;;;;13.95;7.38;;;;;;;3.83;50.21;101474.13;10478949;28;20353;-78
2022/03/11 04:39:27;;;;;;;12.30;6.15;;;;;;;3.80;50.29;101472.16;10496722;28;20052;-78
2022/03/11 04:44:27;;;;;;;12.75;8.00;;;;;;;3.77;50.60;101473.63;10412708;28;20045;-78
2022/03/11 04:49:28;;;;;;;13.20;7.63;;;;;;;3.81;49.96;101468.81;10414143;28;20065;-78
2022/03/11 04:54:28;;;;;;;10.65;6.47;;;;;;;3.72;50.89;101467.13;10414021;28;20029;-78
2022/03/11 04:59:29;;;;;;;12.73;7.53;;;;;;;3.78;51.36;101459.88;10395649;28;20067;-78
2022/03/11 05:04:29;;;;;;;14.38;7.07;;;;;;;3.64;51.21;101464.81;10370737;28;20088;-78
2022/03/11 05:09:30;;;;;;;14.73;8.13;;;;;;;3.65;51.57;101468.28;10386273;28;20107;-78
2022/03/11 05:14:30;;;;;;;12.32;7.10;;;;;;;3.69;51.84;101469.47;10395215;28;20040;-79
2022/03/11 05:19:31;;;;;;;11.35;6.93;;;;;;;3.72;51.36;101464.56;10413380;28;20107;-78
2022/03/11 05:24:31;;;;;;;17.90;8.02;;;;;;;3.66;52.34;101464.91;10412611;28;20025;-78
2022/03/11 05:29:32;;;;;;;11.15;7.10;;;;;;;3.58;52.13;101459.09;10395745;28;20040;-78
2022/03/11 05:34:39;;;;;;;14.43;8.18;;;;;;;3.75;51.50;101457.94;10412182;28;20040;-78
2022/03/11 05:39:40;;;;;;;12.60;7.18;;;;;;;3.51;52.61;101455.06;10410788;28;20674;-78
2022/03/11 05:44:40;;;;;;;13.68;9.73;;;;;;;3.53;52.87;101456.09;10408700;28;20045;-76
2022/03/11 05:49:41;;;;;;;15.63;7.95;;;;;;;3.42;53.35;101456.88;10411460;28;20389;-76
2022/03/11 05:54:41;;;;;;;16.65;9.13;;;;;;;3.43;53.06;101456.09;10413392;28;20120;-77
2022/03/11 05:59:42;;;;;;;14.70;8.75;;;;;;;3.41;53.50;101446.41;10411022;28;20458;-76
2022/03/11 06:04:42;;;;;;;17.23;8.45;;;;;;;3.39;53.46;101433.31;10411165;28;20061;-75
2022/03/11 06:09:43;;;;;;;13.80;7.53;;;;;;;3.49;53.23;101441.09;10411321;28;20107;-78
2022/03/11 06:14:43;;;;;;;15.05;8.68;;;;;;;3.50;53.46;101444.59;10409908;28;20492;-78
2022/03/11 06:19:44;;;;;;;11.23;7.80;;;;;;;3.44;53.36;101439.78;10408831;28;20025;-78
2022/03/11 06:24:47;;;;;;;16.25;8.60;;;;;;;3.48;53.84;101440.97;10409934;28;20071;-75
2022/03/11 06:29:48;;;;;;;18.23;10.23;;;;;;;3.53;53.87;101447.44;10416297;28;20033;-73
2022/03/11 06:34:49;;;;;;;14.20;9.32;;;;;;;3.57;53.56;101467.66;10414716;28;20057;-77
2022/03/11 06:39:49;;;;;;;17.35;8.02;;;;;;;3.55;53.91;101465.69;10417416;28;20861;-76
2022/03/11 06:44:50;;;;;;;16.45;8.68;;;;;;;3.71;53.46;101465.31;10377249;28;20073;-76
2022/03/11 06:49:50;;;;;;;15.45;8.75;;;;;;;3.74;53.75;101469.06;10394426;28;20385;-77
2022/03/11 06:54:51;;;;;;;23.75;9.52;;;;;;;4.36;51.39;101466.41;10416263;28;20029;-76
2022/03/11 06:59:51;;;;;;;20.30;10.45;;;;;;;5.37;49.15;101455.34;10412437;28;20022;-78
2022/03/11 07:04:52;;;;;;;20.88;10.70;;;;;;;6.06;47.69;101453.69;10414829;28;20060;-78
2022/03/11 07:09:52;;;;;;;18.75;11.48;;;;;;;7.59;45.57;101448.13;10410747;28;20034;-77
2022/03/11 07:14:52;;;;;;;24.48;11.32;;;;;;;9.29;40.25;101431.31;10382154;28;20112;-76
2022/03/11 07:19:53;;;;;;;15.77;10.20;;;;;;;9.77;39.61;101424.66;10407000;28;20490;-78
2022/03/11 07:24:54;;;;;;;18.83;10.13;;;;;;;9.79;39.11;101420.41;10404755;28;20029;-77
2022/03/11 07:29:56;;;;;;;14.90;9.18;;;;;;;9.44;39.68;101428.72;10410041;28;20128;-75
2022/03/11 07:34:56;;;;;;;15.98;9.85;;;;;;;10.56;37.95;101425.72;10395883;28;20041;-77
2022/03/11 07:39:57;;;;;;;19.02;9.50;;;;;;;11.59;36.00;101421.63;10404816;28;20037;-75
2022/03/11 07:44:57;;;;;;;16.48;10.38;;;;;;;12.38;34.58;101416.88;10389662;28;20135;-75
2022/03/11 07:49:58;;;;;;;18.17;11.40;;;;;;;12.28;34.96;101412.91;10403601;28;20123;-76
2022/03/11 07:54:58;;;;;;;18.70;11.13;;;;;;;11.81;35.50;101410.56;10414147;28;20049;-76
2022/03/11 08:00:02;;;;;;;18.48;11.75;;;;;;;10.43;37.72;101417.16;10411619;28;20029;-76
2022/03/11 08:05:03;;;;;;;15.93;9.38;;;;;;;8.48;40.86;101398.41;10387085;28;20060;-78
2022/03/11 08:10:05;;;;;;;23.23;12.50;;;;;;;7.84;43.18;101408.09;10414287;28;20025;-79
2022/03/11 08:15:06;;;;;;;16.60;10.60;;;;;;;7.62;44.08;101422.28;10395429;28;20478;-79
2022/03/11 08:20:07;;;;;;;19.80;11.23;;;;;;;7.35;44.13;101399.63;10412760;28;20048;-74
2022/03/11 08:25:09;;;;;;;16.20;11.35;;;;;;;7.28;44.76;101406.94;10418764;28;20052;-77
2022/03/11 08:30:10;;;;;;;18.88;11.57;;;;;;;7.43;45.43;101413.19;10409411;28;20529;-76
2022/03/11 08:35:11;;;;;;;17.55;11.07;;;;;;;7.48;44.54;101409.22;10382471;28;20043;-77
2022/03/11 08:40:12;;;;;;;20.60;12.50;;;;;;;7.54;46.08;101398.28;10411563;28;20034;-78
2022/03/11 08:45:13;;;;;;;19.88;11.18;;;;;;;7.56;44.60;101394.09;10417083;28;20119;-79
2022/03/11 08:50:14;;;;;;;20.67;11.52;;;;;;;7.77;45.46;101394.66;10447823;28;20032;-76
2022/03/11 08:55:15;;;;;;;22.85;11.70;;;;;;;8.06;44.71;101394.78;10442376;28;20063;-77
2022/03/11 09:00:16;;;;;;;21.58;14.70;;;;;;;8.34;45.01;101389.69;10448566;28;20028;-76
2022/03/11 09:05:20;;;;;;;16.48;11.30;;;;;;;8.59;44.88;101398.22;10451022;28;20060;-77
2022/03/11 09:10:20;;;;;;;18.67;11.40;;;;;;;8.59;43.64;101390.41;10449689;28;20033;-78
2022/03/11 09:15:24;;;;;;;17.38;10.90;;;;;;;8.97;44.31;101384.09;10452945;28;20447;-77
2022/03/11 09:20:26;;;;;;;28.02;11.43;;;;;;;9.39;41.80;101374.47;10451879;28;20472;-77
2022/03/11 09:25:27;;;;;;;24.13;12.57;;;;;;;9.62;42.55;101382.78;10419015;28;20060;-77
2022/03/11 09:30:28;;;;;;;20.48;13.75;;;;;;;10.16;42.08;101374.59;10441191;28;20028;-77
2022/03/11 09:35:28;;;;;;;22.15;12.75;;;;;;;11.22;39.70;101373.44;10443163;28;20385;-80
2022/03/11 09:40:29;;;;;;;16.95;10.70;;;;;;;13.13;35.96;101363.47;10433958;28;20437;-79
2022/03/11 09:45:29;;;;;;;16.10;11.15;;;;;;;14.66;33.36;101343.53;10415220;28;20124;-76
2022/03/11 09:50:30;;;;;;;18.10;12.15;;;;;;;15.32;31.37;101336.31;10405335;28;20481;-77
2022/03/11 09:55:31;;;;;;;17.63;10.40;;;;;;;15.65;31.46;101330.41;10385127;28;20455;-77
2022/03/11 10:00:31;;;;;;;23.42;12.15;;;;;;;15.33;31.60;101318.75;10413983;28;20087;-78
2022/03/11 10:05:51;;;;;;;25.73;12.90;;;;;;;15.93;30.54;101319.91;10402176;28;20068;-77
2022/03/11 10:10:51;;;;;;;16.73;11.18;;;;;;;15.90;31.08;101318.09;10385208;28;20512;-78
2022/03/11 10:15:52;;;;;;;18.60;12.10;;;;;;;16.24;31.01;101310.34;10382619;28;20048;-77
2022/03/11 10:20:52;;;;;;;22.63;12.27;;;;;;;16.68;29.40;101317.84;10392591;28;20033;-78
2022/03/11 10:25:53;;;;;;;24.23;10.38;;;;;;;17.22;29.53;101297.38;10378362;28;20143;-77
2022/03/11 10:30:53;;;;;;;19.85;13.40;;;;;;;16.53;29.73;101299.78;10401871;28;20026;-78
2022/03/11 10:35:54;;;;;;;20.92;13.02;;;;;;;17.52;30.33;101293.75;10398191;28;20076;-77
2022/03/11 10:40:56;;;;;;;17.33;12.10;;;;;;;18.09;30.17;101281.03;10391853;28;20065;-78
2022/03/11 10:46:09;;;;;;;19.85;12.93;;;;;;;17.90;28.06;101260.25;10416017;28;20516;-78
2022/03/11 10:51:24;;;;;;;21.35;13.10;;;;;;;17.94;28.80;101277.13;10430658;28;20116;-77
2022/03/11 10:56:35;;;;;;;22.10;12.70;;;;;;;17.84;28.70;101259.25;10434456;28;20017;-77
2022/03/11 11:01:43;;;;;;;23.15;12.07;;;;;;;18.42;28.60;101246.44;10434285;28;20029;-77
2022/03/11 11:06:44;;;;;;;24.95;12.73;;;;;;;18.19;28.67;101241.53;10440781;28;20040;-78
2022/03/11 11:11:44;;;;;;;19.85;12.35;;;;;;;19.79;27.25;101244.56;10437880;28;20033;-77
2022/03/11 11:16:46;;;;;;;20.98;13.38;;;;;;;18.73;27.52;101223.22;10431159;28;20041;-77
2022/03/11 11:21:48;;;;;;;17.13;12.27;;;;;;;19.05;27.41;101233.56;10416597;28;20028;-78
2022/03/11 11:26:50;;;;;;;;;;;;;;;18.95;27.44;101225.41;10440531;28;20105;-77
2022/03/11 11:31:50;;;;;;;20.80;12.95;;;;;;;18.35;28.65;101218.03;10436563;28;19962;-77
2022/03/11 11:36:51;;;;;;;21.67;13.60;;;;;;;18.92;27.43;101197.03;10430736;28;20083;-77
2022/03/11 11:41:56;;;;;;;19.42;13.25;;;;;;;18.36;30.31;101195.97;10437819;28;20136;-77
2022/03/11 11:47:13;;;;;;;21.67;16.10;;;;;;;17.95;28.60;101180.94;10449234;28;20517;-78
2022/03/11 11:52:36;;;;;;;22.92;13.43;;;;;;;18.06;28.88;101178.56;10478821;28;20034;-78
2022/03/11 11:57:36;;;;;;;23.30;15.15;;;;;;;17.96;29.16;101177.44;10464210;28;20024;-78
2022/03/11 12:02:37;;;;;;;22.25;13.38;;;;;;;19.36;28.28;101159.81;10438315;28;20496;-78
2022/03/11 12:07:45;;;;;;;20.13;14.63;;;;;;;19.08;27.85;101159.34;10438198;28;20114;-79
2022/03/11 12:12:48;;;;;;;21.90;13.82;;;;;;;18.44;28.37;101146.66;10445852;28;20028;-80
2022/03/11 12:18:02;;;;;;;24.38;14.68;;;;;;;17.94;29.40;101135.88;10467470;28;20021;-78
2022/03/11 12:23:09;;;;;;;21.65;13.40;;;;;;;18.24;29.51;101130.38;10447963;28;20436;-77
2022/03/11 12:28:11;;;;;;;24.52;13.88;;;;;;;18.63;29.37;101084.31;10475714;28;20024;-78
2022/03/11 12:33:15;;;;;;;21.08;14.23;;;;;;;19.86;26.76;101103.91;10437605;28;20473;-78
2022/03/11 12:38:17;;;;;;;21.67;14.07;;;;;;;20.19;26.81;101094.59;10477044;28;20029;-78
2022/03/11 12:43:18;;;;;;;22.50;14.27;;;;;;;20.60;27.41;101101.22;10461157;28;20052;-77
2022/03/11 12:48:25;;;;;;;23.50;16.02;;;;;;;20.11;27.00;101091.84;10484880;28;20028;-77
2022/03/11 12:53:26;;;;;;;23.25;14.75;;;;;;;18.83;28.35;101074.91;10484830;28;20521;-77
2022/03/11 12:58:31;;;;;;;27.30;13.30;;;;;;;18.40;29.43;101078.56;10472581;28;20072;-78
2022/03/11 13:03:36;;;;;;;23.35;14.40;;;;;;;19.66;28.55;101078.84;10468948;28;20040;-78
2022/03/11 13:08:37;;;;;;;22.23;13.27;;;;;;;18.65;28.98;101068.41;10436581;28;20029;-80
2022/03/11 13:13:38;;;;;;;19.00;13.93;;;;;;;19.23;29.08;101062.31;10474237;28;20055;-79
2022/03/11 13:18:38;;;;;;;22.20;12.85;;;;;;;19.04;28.60;101067.34;10441581;28;20083;-79
2022/03/11 13:23:43;;;;;;;24.92;14.65;;;;;;;19.55;27.35;101050.38;10458279;28;20468;-78
2022/03/11 13:28:57;;;;;;;21.30;14.20;;;;;;;19.65;27.33;101061.13;10478603;28;20068;-77
2022/03/11 13:33:57;;;;;;;23.25;14.43;;;;;;;18.80;28.35;101051.91;10470388;28;20119;-79
2022/03/11 13:38:58;;;;;;;25.80;13.48;;;;;;;19.35;28.81;101032.44;10487713;28;20042;-78
2022/03/11 13:44:01;;;;;;;22.02;14.35;;;;;;;18.59;28.83;101033.84;10472459;28;20045;-78
2022/03/11 13:49:11;;;;;;;20.88;14.73;;;;;;;18.85;28.78;101033.41;10451680;28;20450;-80
2022/03/11 13:54:34;;;;;;;20.00;13.82;;;;;;;18.14;29.21;101036.59;10440298;28;20089;-79
2022/03/11 13:59:35;;;;;;;22.13;14.55;;;;;;;18.62;29.07;101020.66;10476826;28;20044;-80
2022/03/11 14:04:35;;;;;;;21.73;14.27;;;;;;;18.91;28.96;101031.75;10467739;28;20091;-78
2022/03/11 14:09:36;;;;;;;20.13;13.55;;;;;;;19.29;28.43;101030.56;10434785;28;20497;-79
2022/03/11 14:14:41;;;;;;;23.15;13.88;;;;;;;19.14;27.80;101030.34;10441831;28;20124;-79
2022/03/11 14:19:42;;;;;;;23.42;14.60;;;;;;;19.21;28.17;101022.50;10440800;28;20039;-79
2022/03/11 14:24:42;;;;;;;27.48;17.77;;;;;;;18.07;28.55;101024.09;10450158;28;20045;-79
2022/03/11 14:29:43;;;;;;;18.90;12.50;;;;;;;18.04;28.99;101006.41;10437573;28;20099;-79
2022/03/11 14:34:43;;;;;;;23.20;14.25;;;;;;;18.55;28.33;101018.78;10458518;28;20118;-77
2022/03/11 14:39:44;;;;;;;25.50;13.63;;;;;;;17.96;28.72;101007.06;10459495;28;20025;-77
2022/03/11 14:44:44;;;;;;;24.25;14.95;;;;;;;18.01;28.92;101000.13;10470658;28;20551;-79
2022/03/11 14:49:47;;;;;;;22.65;14.43;;;;;;;18.25;28.62;101002.38;10431052;28;20047;-76
2022/03/11 14:54:48;;;;;;;21.77;15.48;;;;;;;18.24;28.41;101002.31;10444800;28;20039;-79
2022/03/11 14:59:49;;;;;;;22.90;15.13;;;;;;;17.16;29.10;100986.94;10476539;28;20040;-79
2022/03/11 15:04:49;;;;;;;26.15;13.15;;;;;;;17.74;29.23;101009.28;10474927;28;20063;-81
2022/03/11 15:09:50;;;;;;;20.38;14.35;;;;;;;17.10;28.87;101004.38;10465021;28;20044;-81
2022/03/11 15:14:51;;;;;;;24.70;14.40;;;;;;;16.52;29.87;101002.09;10488188;28;20072;-79
2022/03/11 15:19:52;;;;;;;22.17;14.40;;;;;;;16.64;30.89;100998.88;10449301;28;20722;-79
2022/03/11 15:24:52;;;;;;;32.15;21.52;;;;;;;15.66;31.87;100991.88;10471441;28;20115;-80
2022/03/11 15:29:53;;;;;;;22.92;11.90;;;;;;;14.55;33.14;101013.00;10459953;28;20072;-81
2022/03/11 15:34:54;;;;;;;25.48;12.57;;;;;;;13.49;34.71;101001.38;10481001;28;20025;-81
2022/03/11 15:39:54;;;;;;;22.83;13.37;;;;;;;12.95;35.88;101000.97;10483227;28;20033;-81
2022/03/11 15:44:56;;;;;;;25.10;13.70;;;;;;;12.72;36.19;100998.31;10452607;28;20084;-79
2022/03/11 15:49:57;;;;;;;22.77;14.15;;;;;;;12.69;36.09;100980.72;10478976;28;20040;-80
2022/03/11 15:54:57;;;;;;;21.83;13.52;;;;;;;12.74;35.79;100996.66;10466921;28;20717;-79
2022/03/11 15:59:58;;;;;;;24.45;13.45;;;;;;;12.68;35.80;100999.03;10477945;28;20032;-80
2022/03/11 16:04:59;;;;;;;23.20;15.82;;;;;;;12.57;36.18;100999.47;10467684;28;20036;-81
2022/03/11 16:09:59;;;;;;;20.08;12.35;;;;;;;12.58;35.44;100997.75;10465909;28;20056;-79
2022/03/11 16:15:00;;;;;;;23.35;12.10;;;;;;;12.69;35.43;100990.31;10444632;28;20446;-81
2022/03/11 16:20:00;;;;;;;24.20;12.90;;;;;;;12.56;35.91;101007.31;10475425;28;20460;-81
2022/03/11 16:25:01;;;;;;;22.17;13.85;;;;;;;12.44;35.90;101013.84;10456846;28;20063;-81
2022/03/11 16:30:02;;;;;;;23.48;12.90;;;;;;;12.34;36.38;101015.16;10468964;28;20024;-81
2022/03/11 16:35:05;;;;;;;25.80;14.07;;;;;;;12.15;36.68;101012.56;10452771;28;20049;-79
2022/03/11 16:40:07;;;;;;;23.40;14.13;;;;;;;12.04;37.14;101017.34;10472552;28;20016;-78
2022/03/11 16:45:13;;;;;;;26.65;13.40;;;;;;;11.95;36.98;101030.03;10439613;28;20045;-79
2022/03/11 16:50:14;;;;;;;23.90;12.63;;;;;;;11.85;37.36;101026.09;10477138;28;20028;-79
2022/03/11 16:55:17;;;;;;;22.45;12.18;;;;;;;11.74;37.19;101043.97;10444668;28;20032;-82
2022/03/11 17:00:18;;;;;;;20.67;12.23;;;;;;;11.58;37.73;101053.75;10456437;28;20106;-77
2022/03/11 17:05:18;;;;;;;29.48;14.45;;;;;;;11.47;37.41;101047.09;10464138;28;20036;-78
2022/03/11 17:10:20;;;;;;;21.88;12.68;;;;;;;11.33;37.46;101056.03;10472981;28;20024;-78
2022/03/11 17:15:21;;;;;;;21.88;14.15;;;;;;;11.14;38.26;101066.53;10444000;28;20035;-79
2022/03/11 17:20:26;;;;;;;24.17;13.23;;;;;;;10.96;38.08;101068.22;10448283;28;20380;-79
2022/03/11 17:25:26;;;;;;;;;;;;;;;10.79;38.69;101070.91;10478675;28;20391;-78
2022/03/11 17:30:30;;;;;;;18.88;13.23;;;;;;;10.62;38.85;101077.03;10471538;28;19927;-79
2022/03/11 17:35:31;;;;;;;24.27;13.63;;;;;;;10.55;38.55;101071.47;10482466;28;20467;-79
2022/03/11 17:40:32;;;;;;;22.50;13.30;;;;;;;10.51;38.71;101072.13;10447777;28;20033;-78
2022/03/11 17:45:35;;;;;;;19.95;12.18;;;;;;;10.41;38.72;101086.47;10465640;28;20462;-79
2022/03/11 17:50:39;;;;;;;18.70;14.63;;;;;;;10.32;39.16;101087.66;10455359;28;20075;-79
2022/03/11 17:55:42;;;;;;;24.30;14.02;;;;;;;10.37;39.09;101081.88;10491611;28;20422;-77
2022/03/11 18:00:43;;;;;;;28.38;12.57;;;;;;;10.34;38.92;101091.28;10485656;28;20025;-78
2022/03/11 18:05:46;;;;;;;23.90;13.93;;;;;;;10.17;39.00;101086.06;10468676;28;20460;-77
2022/03/11 18:10:46;;;;;;;23.92;13.48;;;;;;;10.11;39.04;101099.72;10435635;28;20068;-79
2022/03/11 18:15:48;;;;;;;21.88;13.18;;;;;;;10.03;39.14;101097.50;10463679;28;20052;-78
2022/03/11 18:20:49;;;;;;;24.43;14.93;;;;;;;10.02;38.92;101101.84;10491189;28;20089;-79
2022/03/11 18:25:49;;;;;;;24.83;14.23;;;;;;;9.90;39.32;101104.69;10464707;28;20326;-79
2022/03/11 18:30:53;;;;;;;37.00;15.83;;;;;;;9.83;39.43;101107.78;10492072;28;20082;-78
2022/03/11 18:35:55;;;;;;;17.50;11.13;;;;;;;9.80;39.09;101111.13;10454713;28;20434;-77
2022/03/11 18:40:56;;;;;;;19.45;12.82;;;;;;;9.79;39.44;101108.41;10444266;28;20029;-77
2022/03/11 18:45:57;;;;;;;18.63;11.60;;;;;;;9.72;39.69;101121.97;10470454;28;20083;-77
2022/03/11 18:50:57;;;;;;;21.75;13.38;;;;;;;9.60;39.62;101119.59;10441307;28;20043;-79
2022/03/11 18:55:58;;;;;;;23.98;12.25;;;;;;;9.54;39.38;101118.44;10485848;28;20441;-77
2022/03/11 19:00:59;;;;;;;23.95;12.07;;;;;;;9.43;39.84;101118.63;10485043;28;20024;-78
2022/03/11 19:05:59;;;;;;;24.48;12.13;;;;;;;9.48;39.10;101135.47;10485232;28;20115;-75
2022/03/11 19:11:00;;;;;;;21.58;12.10;;;;;;;9.37;39.55;101127.03;10481123;28;20123;-78
2022/03/11 19:16:02;;;;;;;16.73;10.53;;;;;;;9.15;39.85;101122.28;10476593;28;20023;-77
2022/03/11 19:21:02;;;;;;;20.77;12.90;;;;;;;9.16;40.08;101124.09;10476558;28;20032;-77
2022/03/11 19:26:04;;;;;;;21.30;13.43;;;;;;;9.18;39.25;101128.59;10480023;28;20510;-77
2022/03/11 19:31:08;;;;;;;20.35;12.02;;;;;;;9.15;39.53;101132.72;10448097;28;20021;-76
2022/03/11 19:36:10;;;;;;;20.33;10.60;;;;;;;9.05;39.29;101132.19;10455416;28;20039;-77
2022/03/11 19:41:11;;;;;;;19.75;11.00;;;;;;;8.99;40.10;101121.41;10490635;28;20472;-77
2022/03/11 19:46:12;;;;;;;19.75;10.23;;;;;;;8.92;39.66;101134.91;10397608;28;20050;-77
2022/03/11 19:51:13;;;;;;;18.55;10.23;;;;;;;8.84;40.50;101134.47;10403343;28;20066;-77
2022/03/11 19:56:13;;;;;;;21.25;10.45;;;;;;;8.84;40.79;101144.00;10379315;28;20477;-77
2022/03/11 20:01:16;;;;;;;17.90;12.57;;;;;;;8.78;40.58;101137.59;10415235;28;20060;-77
2022/03/11 20:06:17;;;;;;;20.38;12.20;;;;;;;8.71;40.34;101147.59;10410575;28;20026;-78
2022/03/11 20:11:18;;;;;;;18.48;9.63;;;;;;;8.74;39.96;101130.41;10409226;28;20033;-77
2022/03/11 20:16:25;;;;;;;15.40;10.45;;;;;;;8.73;40.28;101154.69;10408709;28;20036;-78
2022/03/11 20:21:25;;;;;;;17.40;10.80;;;;;;;8.66;39.99;101158.66;10401070;28;20034;-78
2022/03/11 20:26:26;;;;;;;20.15;10.57;;;;;;;8.69;39.99;101154.44;10376336;28;20033;-79
2022/03/11 20:31:27;;;;;;;17.65;9.85;;;;;;;8.71;39.55;101164.13;10397138;28;20108;-79
2022/03/11 20:36:28;;;;;;;14.98;10.23;;;;;;;8.69;39.94;101163.16;10408073;28;20029;-77
2022/03/11 20:41:28;;;;;;;14.90;9.18;;;;;;;8.73;39.71;101146.88;10407416;28;20040;-79
2022/03/11 20:46:29;;;;;;;17.35;9.75;;;;;;;8.72;40.35;101162.44;10443894;28;20463;-82
2022/03/11 20:51:29;;;;;;;16.15;11.98;;;;;;;8.57;41.04;101163.31;10436814;28;20048;-82
2022/03/11 20:56:30;;;;;;;24.08;10.98;;;;;;;8.64;40.34;101168.09;10440106;28;20028;-82
2022/03/11 21:01:31;;;;;;;21.58;10.55;;;;;;;8.66;39.43;101176.94;10487713;28;20055;-80
2022/03/11 21:06:31;;;;;;;19.17;11.27;;;;;;;8.71;40.26;101189.34;10441635;28;20052;-81
2022/03/11 21:11:35;;;;;;;17.30;11.45;;;;;;;8.69;40.16;101178.81;10474900;28;20484;-84
2022/03/11 21:16:35;;;;;;;19.83;10.25;;;;;;;8.80;39.32;101182.06;10450365;28;20090;-81
2022/03/11 21:21:36;;;;;;;16.17;11.38;;;;;;;8.68;39.51;101186.56;10489983;28;20345;-82
2022/03/11 21:26:38;;;;;;;15.50;9.55;;;;;;;8.70;39.17;101182.34;10451124;28;20024;-82
2022/03/11 21:31:39;;;;;;;16.17;9.73;;;;;;;8.70;40.20;101180.59;10450187;28;20049;-82
2022/03/11 21:36:40;;;;;;;16.40;10.40;;;;;;;8.77;39.65;101182.78;10434379;28;20075;-80
2022/03/11 21:41:41;;;;;;;22.92;10.90;;;;;;;8.72;39.13;101179.00;10453921;28;20546;-81
2022/03/11 21:46:42;;;;;;;15.30;9.90;;;;;;;8.78;38.79;101176.75;10449019;28;20508;-81
2022/03/11 21:51:43;;;;;;;20.80;10.57;;;;;;;8.79;39.34;101168.13;10443354;28;20063;-80
2022/03/11 21:56:44;;;;;;;17.58;10.20;;;;;;;8.75;39.37;101173.97;10472361;28;20040;-81
2022/03/11 22:01:45;;;;;;;18.90;10.70;;;;;;;8.76;39.29;101172.25;10458011;28;20390;-80
2022/03/11 22:06:46;;;;;;;17.52;10.18;;;;;;;8.73;39.97;101172.06;10478354;28;20033;-79
2022/03/11 22:11:47;;;;;;;15.88;9.07;;;;;;;8.74;39.47;101164.31;10477229;28;20048;-80
2022/03/11 22:16:47;;;;;;;17.02;9.40;;;;;;;8.86;39.30;101178.91;10477788;28;20039;-80
2022/03/11 22:21:48;;;;;;;19.92;12.25;;;;;;;8.82;39.35;101183.06;10494549;28;20128;-79
2022/03/11 22:26:48;;;;;;;16.17;10.57;;;;;;;8.79;39.63;101185.50;10476272;28;20068;-79
2022/03/11 22:31:49;;;;;;;15.35;10.77;;;;;;;8.76;39.29;101180.97;10475661;28;20553;-79
2022/03/11 22:36:49;;;;;;;24.80;11.82;;;;;;;8.87;38.85;101172.88;10494263;28;20037;-80
2022/03/11 22:41:50;;;;;;;16.42;11.55;;;;;;;8.87;39.03;101184.25;10459869;28;20079;-80
2022/03/11 22:46:51;;;;;;;18.83;11.07;;;;;;;8.95;38.66;101187.28;10495249;28;20036;-81
2022/03/11 22:51:57;;;;;;;19.60;10.93;;;;;;;9.01;38.03;101184.16;10475598;28;20447;-79